Terminal Aerodrome Forecast
Issued by NWS

Home | Current Version | Previous Version | Text Only | Print | Product List | Glossary On
Versions: 1 2 3 4 5 6 7 8 9 10 11 12 13
000
FTUS46 KSGX 011700
TAFSNA
TAF
KSNA 011720Z 0118/0218 22009KT P6SM SKC
     FM020200 20005KT P6SM SCT012
     FM020800 VRB03KT P6SM BKN012
     FM021500 VRB03KT P6SM SCT015 SCT150=

USA.gov is the U.S. government's official web portal to all federal, state and local government web resources and services.